sensor_id;sensor_type;location;lat;lon;timestamp;pressure;altitude;pressure_sealevel;temperature;humidity
19005;BME280;9635;52.078;8.648;2023-06-24T00:05:03;101268.19;;;16.72;59.80
19005;BME280;9635;52.078;8.648;2023-06-24T00:10:07;101265.75;;;16.69;59.28
19005;BME280;9635;52.078;8.648;2023-06-24T00:15:10;101269.84;;;16.25;60.77
19005;BME280;9635;52.078;8.648;2023-06-24T00:20:14;101255.19;;;16.27;62.73
19005;BME280;9635;52.078;8.648;2023-06-24T00:25:19;101259.41;;;16.20;63.04
19005;BME280;9635;52.078;8.648;2023-06-24T00:30:22;101256.78;;;15.89;63.99
19005;BME280;9635;52.078;8.648;2023-06-24T00:35:26;101258.47;;;15.81;64.40
19005;BME280;9635;52.078;8.648;2023-06-24T00:40:30;101255.13;;;16.08;64.38
19005;BME280;9635;52.078;8.648;2023-06-24T00:45:33;101255.56;;;16.23;64.57
19005;BME280;9635;52.078;8.648;2023-06-24T00:50:38;101254.16;;;16.28;63.59
19005;BME280;9635;52.078;8.648;2023-06-24T00:55:44;101254.97;;;16.09;64.20
19005;BME280;9635;52.078;8.648;2023-06-24T01:00:49;101256.22;;;15.96;65.19
19005;BME280;9635;52.078;8.648;2023-06-24T01:06:00;101262.59;;;15.44;67.34
19005;BME280;9635;52.078;8.648;2023-06-24T01:11:03;101267.53;;;15.39;67.54
19005;BME280;9635;52.078;8.648;2023-06-24T01:16:10;101266.59;;;15.50;67.79
19005;BME280;9635;52.078;8.648;2023-06-24T01:21:24;101267.31;;;15.52;67.95
19005;BME280;9635;52.078;8.648;2023-06-24T01:26:59;101265.06;;;15.57;68.65
19005;BME280;9635;52.078;8.648;2023-06-24T01:32:09;101258.38;;;15.61;67.91
19005;BME280;9635;52.078;8.648;2023-06-24T01:37:19;101256.25;;;15.65;68.00
19005;BME280;9635;52.078;8.648;2023-06-24T01:42:22;101259.63;;;15.57;67.60
19005;BME280;9635;52.078;8.648;2023-06-24T01:47:28;101270.91;;;15.53;68.08
19005;BME280;9635;52.078;8.648;2023-06-24T01:52:32;101283.25;;;15.45;68.41
19005;BME280;9635;52.078;8.648;2023-06-24T01:57:37;101287.41;;;15.29;68.48
19005;BME280;9635;52.078;8.648;2023-06-24T02:02:43;101275.28;;;15.33;68.66
19005;BME280;9635;52.078;8.648;2023-06-24T02:07:48;101274.53;;;15.42;68.26
19005;BME280;9635;52.078;8.648;2023-06-24T02:12:54;101271.63;;;15.34;68.10
19005;BME280;9635;52.078;8.648;2023-06-24T02:17:59;101262.84;;;15.20;68.40
19005;BME280;9635;52.078;8.648;2023-06-24T02:23:06;101263.31;;;15.25;68.44
19005;BME280;9635;52.078;8.648;2023-06-24T02:28:10;101263.88;;;15.29;68.32
19005;BME280;9635;52.078;8.648;2023-06-24T02:33:14;101270.31;;;15.28;68.37
19005;BME280;9635;52.078;8.648;2023-06-24T02:38:19;101276.97;;;15.24;68.58
19005;BME280;9635;52.078;8.648;2023-06-24T02:43:22;101290.91;;;15.19;68.34
19005;BME280;9635;52.078;8.648;2023-06-24T02:48:28;101286.41;;;15.09;68.42
19005;BME280;9635;52.078;8.648;2023-06-24T02:53:33;101280.81;;;15.00;68.72
19005;BME280;9635;52.078;8.648;2023-06-24T02:58:39;101279.66;;;14.82;69.47
19005;BME280;9635;52.078;8.648;2023-06-24T03:03:51;101294.09;;;14.71;69.68
19005;BME280;9635;52.078;8.648;2023-06-24T03:08:57;101294.84;;;14.73;70.78
19005;BME280;9635;52.078;8.648;2023-06-24T03:14:00;101303.66;;;14.75;71.43
19005;BME280;9635;52.078;8.648;2023-06-24T03:19:14;101303.78;;;14.74;71.34
19005;BME280;9635;52.078;8.648;2023-06-24T03:24:17;101304.78;;;14.73;71.46
19005;BME280;9635;52.078;8.648;2023-06-24T03:29:23;101304.06;;;14.71;71.59
19005;BME280;9635;52.078;8.648;2023-06-24T03:34:35;101302.94;;;14.73;71.63
19005;BME280;9635;52.078;8.648;2023-06-24T03:39:37;101296.63;;;14.84;71.58
19005;BME280;9635;52.078;8.648;2023-06-24T03:44:41;101297.97;;;14.90;71.63
19005;BME280;9635;52.078;8.648;2023-06-24T03:49:45;101307.94;;;14.89;71.39
19005;BME280;9635;52.078;8.648;2023-06-24T03:54:48;101302.25;;;14.92;71.19
19005;BME280;9635;52.078;8.648;2023-06-24T03:59:51;101302.31;;;15.02;71.80
19005;BME280;9635;52.078;8.648;2023-06-24T04:04:57;101312.50;;;15.31;71.33
19005;BME280;9635;52.078;8.648;2023-06-24T04:10:00;101317.19;;;15.50;69.96
19005;BME280;9635;52.078;8.648;2023-06-24T04:15:04;101315.72;;;15.66;68.67
19005;BME280;9635;52.078;8.648;2023-06-24T04:20:10;101306.00;;;15.64;68.04
19005;BME280;9635;52.078;8.648;2023-06-24T04:25:13;101310.56;;;15.63;67.81
19005;BME280;9635;52.078;8.648;2023-06-24T04:30:15;101310.41;;;15.65;67.73
19005;BME280;9635;52.078;8.648;2023-06-24T04:35:20;101317.22;;;15.80;67.90
19005;BME280;9635;52.078;8.648;2023-06-24T04:40:23;101322.66;;;15.90;68.11
19005;BME280;9635;52.078;8.648;2023-06-24T04:45:25;101315.69;;;15.97;68.02
19005;BME280;9635;52.078;8.648;2023-06-24T04:50:29;101314.84;;;15.97;68.10
19005;BME280;9635;52.078;8.648;2023-06-24T04:55:33;101320.25;;;15.97;68.01
19005;BME280;9635;52.078;8.648;2023-06-24T05:00:36;101318.41;;;15.97;68.15
19005;BME280;9635;52.078;8.648;2023-06-24T05:05:40;101330.16;;;16.07;67.32
19005;BME280;9635;52.078;8.648;2023-06-24T05:10:44;101322.25;;;16.04;67.25
19005;BME280;9635;52.078;8.648;2023-06-24T05:15:47;101323.84;;;16.07;67.62
19005;BME280;9635;52.078;8.648;2023-06-24T05:20:51;101322.09;;;16.27;67.80
19005;BME280;9635;52.078;8.648;2023-06-24T05:25:54;101315.56;;;16.39;68.24
19005;BME280;9635;52.078;8.648;2023-06-24T05:30:56;101319.44;;;16.46;67.50
19005;BME280;9635;52.078;8.648;2023-06-24T05:36:01;101315.88;;;16.65;67.38
19005;BME280;9635;52.078;8.648;2023-06-24T05:41:04;101322.47;;;16.82;67.21
19005;BME280;9635;52.078;8.648;2023-06-24T05:46:07;101327.72;;;16.84;67.13
19005;BME280;9635;52.078;8.648;2023-06-24T05:51:11;101331.03;;;16.87;65.54
19005;BME280;9635;52.078;8.648;2023-06-24T05:56:14;101322.31;;;16.93;65.24
19005;BME280;9635;52.078;8.648;2023-06-24T06:01:17;101321.44;;;17.02;66.32
19005;BME280;9635;52.078;8.648;2023-06-24T06:06:21;101328.88;;;17.30;66.79
19005;BME280;9635;52.078;8.648;2023-06-24T06:11:24;101329.00;;;17.47;65.42
19005;BME280;9635;52.078;8.648;2023-06-24T06:16:27;101321.53;;;17.50;65.57
19005;BME280;9635;52.078;8.648;2023-06-24T06:21:31;101333.22;;;17.69;64.80
19005;BME280;9635;52.078;8.648;2023-06-24T06:26:34;101336.59;;;17.91;64.25
19005;BME280;9635;52.078;8.648;2023-06-24T06:31:37;101328.31;;;18.20;63.77
19005;BME280;9635;52.078;8.648;2023-06-24T06:36:42;101332.72;;;18.49;61.94
19005;BME280;9635;52.078;8.648;2023-06-24T06:41:45;101326.09;;;18.79;62.00
19005;BME280;9635;52.078;8.648;2023-06-24T06:46:50;101326.59;;;19.18;62.34
19005;BME280;9635;52.078;8.648;2023-06-24T06:51:55;101334.03;;;19.34;60.49
19005;BME280;9635;52.078;8.648;2023-06-24T06:57:00;101332.50;;;19.58;58.33
19005;BME280;9635;52.078;8.648;2023-06-24T07:02:03;101338.63;;;19.78;58.25
19005;BME280;9635;52.078;8.648;2023-06-24T07:07:08;101319.16;;;20.07;59.04
19005;BME280;9635;52.078;8.648;2023-06-24T07:12:11;101324.59;;;20.41;56.95
19005;BME280;9635;52.078;8.648;2023-06-24T07:17:14;101324.66;;;20.66;57.01
19005;BME280;9635;52.078;8.648;2023-06-24T07:22:19;101325.38;;;21.17;56.87
19005;BME280;9635;52.078;8.648;2023-06-24T07:27:22;101320.91;;;22.52;54.48
19005;BME280;9635;52.078;8.648;2023-06-24T07:32:25;101319.38;;;24.16;50.38
19005;BME280;9635;52.078;8.648;2023-06-24T07:37:29;101329.53;;;24.88;46.28
19005;BME280;9635;52.078;8.648;2023-06-24T07:42:32;101335.53;;;25.41;45.01
19005;BME280;9635;52.078;8.648;2023-06-24T07:47:35;101324.25;;;25.29;45.32
19005;BME280;9635;52.078;8.648;2023-06-24T07:52:39;101333.47;;;25.78;44.45
19005;BME280;9635;52.078;8.648;2023-06-24T07:57:44;101325.88;;;25.24;46.32
19005;BME280;9635;52.078;8.648;2023-06-24T08:02:47;101327.97;;;25.50;43.48
19005;BME280;9635;52.078;8.648;2023-06-24T08:07:52;101331.28;;;24.95;44.83
19005;BME280;9635;52.078;8.648;2023-06-24T08:12:55;101330.41;;;25.10;44.59
19005;BME280;9635;52.078;8.648;2023-06-24T08:17:58;101321.22;;;24.81;45.29
19005;BME280;9635;52.078;8.648;2023-06-24T08:23:02;101323.66;;;24.91;45.35
19005;BME280;9635;52.078;8.648;2023-06-24T08:28:08;101331.31;;;23.26;48.17
19005;BME280;9635;52.078;8.648;2023-06-24T08:33:11;101320.22;;;24.16;46.69
19005;BME280;9635;52.078;8.648;2023-06-24T08:38:15;101316.63;;;25.31;44.36
19005;BME280;9635;52.078;8.648;2023-06-24T08:43:18;101317.19;;;24.98;45.27
19005;BME280;9635;52.078;8.648;2023-06-24T08:48:22;101306.41;;;25.25;44.80
19005;BME280;9635;52.078;8.648;2023-06-24T08:53:28;101299.81;;;25.48;43.39
19005;BME280;9635;52.078;8.648;2023-06-24T08:58:31;101297.97;;;25.55;43.67
19005;BME280;9635;52.078;8.648;2023-06-24T09:03:34;101297.84;;;25.07;44.80
19005;BME280;9635;52.078;8.648;2023-06-24T09:08:39;101291.19;;;25.51;44.98
19005;BME280;9635;52.078;8.648;2023-06-24T09:13:43;101293.53;;;26.30;43.04
19005;BME280;9635;52.078;8.648;2023-06-24T09:18:47;101283.50;;;27.24;42.78
19005;BME280;9635;52.078;8.648;2023-06-24T09:23:53;101285.56;;;26.00;40.65
19005;BME280;9635;52.078;8.648;2023-06-24T09:28:57;101280.91;;;26.56;40.93
19005;BME280;9635;52.078;8.648;2023-06-24T09:34:00;101267.38;;;27.01;39.62
19005;BME280;9635;52.078;8.648;2023-06-24T09:39:06;101283.06;;;27.07;39.79
19005;BME280;9635;52.078;8.648;2023-06-24T09:44:30;101270.44;;;26.38;40.46
19005;BME280;9635;52.078;8.648;2023-06-24T09:49:33;101269.31;;;27.13;39.83
19005;BME280;9635;52.078;8.648;2023-06-24T09:54:37;101271.38;;;27.65;39.65
19005;BME280;9635;52.078;8.648;2023-06-24T09:59:40;101266.34;;;28.52;38.85
19005;BME280;9635;52.078;8.648;2023-06-24T10:04:45;101263.88;;;28.68;38.09
19005;BME280;9635;52.078;8.648;2023-06-24T10:09:50;101254.72;;;29.00;37.69
19005;BME280;9635;52.078;8.648;2023-06-24T10:14:54;101249.84;;;28.70;37.02
19005;BME280;9635;52.078;8.648;2023-06-24T10:19:57;101246.53;;;28.16;38.74
19005;BME280;9635;52.078;8.648;2023-06-24T10:25:06;101247.22;;;28.12;38.30
19005;BME280;9635;52.078;8.648;2023-06-24T10:30:16;101232.34;;;28.13;37.80
19005;BME280;9635;52.078;8.648;2023-06-24T10:35:23;101222.75;;;29.10;38.63
19005;BME280;9635;52.078;8.648;2023-06-24T10:40:36;101217.63;;;28.82;39.35
19005;BME280;9635;52.078;8.648;2023-06-24T10:45:48;101206.84;;;30.58;36.58
19005;BME280;9635;52.078;8.648;2023-06-24T10:50:51;101221.56;;;29.80;35.76
19005;BME280;9635;52.078;8.648;2023-06-24T10:55:58;101202.41;;;30.39;37.11
19005;BME280;9635;52.078;8.648;2023-06-24T11:01:08;101194.34;;;31.03;36.75
19005;BME280;9635;52.078;8.648;2023-06-24T11:06:12;101195.53;;;30.72;35.40
19005;BME280;9635;52.078;8.648;2023-06-24T11:11:19;101187.16;;;31.54;33.61
19005;BME280;9635;52.078;8.648;2023-06-24T11:16:24;101186.75;;;30.02;34.80
19005;BME280;9635;52.078;8.648;2023-06-24T11:21:29;101172.28;;;30.84;34.84
19005;BME280;9635;52.078;8.648;2023-06-24T11:26:34;101178.44;;;29.54;37.33
19005;BME280;9635;52.078;8.648;2023-06-24T11:31:37;101177.47;;;29.78;36.52
19005;BME280;9635;52.078;8.648;2023-06-24T11:36:42;101183.97;;;30.02;36.40
19005;BME280;9635;52.078;8.648;2023-06-24T11:41:46;101175.69;;;28.67;38.53
19005;BME280;9635;52.078;8.648;2023-06-24T11:46:50;101172.09;;;29.84;34.26
19005;BME280;9635;52.078;8.648;2023-06-24T11:51:53;101159.78;;;29.98;35.27
19005;BME280;9635;52.078;8.648;2023-06-24T11:56:58;101156.19;;;30.39;34.88
19005;BME280;9635;52.078;8.648;2023-06-24T12:02:01;101152.63;;;31.62;34.78
19005;BME280;9635;52.078;8.648;2023-06-24T12:07:05;101146.63;;;27.88;38.62
19005;BME280;9635;52.078;8.648;2023-06-24T12:12:10;101149.34;;;28.64;36.95
19005;BME280;9635;52.078;8.648;2023-06-24T12:17:13;101138.09;;;30.37;35.26
19005;BME280;9635;52.078;8.648;2023-06-24T12:22:16;101132.75;;;30.23;36.07
19005;BME280;9635;52.078;8.648;2023-06-24T12:27:23;101134.72;;;30.46;36.45
19005;BME280;9635;52.078;8.648;2023-06-24T12:32:26;101129.41;;;31.39;35.50
19005;BME280;9635;52.078;8.648;2023-06-24T12:37:30;101122.63;;;32.83;32.66
19005;BME280;9635;52.078;8.648;2023-06-24T12:42:34;101116.69;;;33.14;33.56
19005;BME280;9635;52.078;8.648;2023-06-24T12:47:37;101114.56;;;33.04;32.49
19005;BME280;9635;52.078;8.648;2023-06-24T12:52:40;101119.38;;;32.70;32.58
19005;BME280;9635;52.078;8.648;2023-06-24T12:57:45;101123.78;;;31.22;34.25
19005;BME280;9635;52.078;8.648;2023-06-24T13:02:48;101113.88;;;31.38;32.98
19005;BME280;9635;52.078;8.648;2023-06-24T13:07:51;101112.81;;;32.13;31.96
19005;BME280;9635;52.078;8.648;2023-06-24T13:12:55;101108.25;;;33.30;31.55
19005;BME280;9635;52.078;8.648;2023-06-24T13:17:58;101103.03;;;32.95;29.02
19005;BME280;9635;52.078;8.648;2023-06-24T13:23:03;101107.38;;;31.09;32.92
19005;BME280;9635;52.078;8.648;2023-06-24T13:28:07;101108.53;;;31.37;32.12
19005;BME280;9635;52.078;8.648;2023-06-24T13:33:10;101101.66;;;31.79;31.41
19005;BME280;9635;52.078;8.648;2023-06-24T13:38:13;101103.56;;;31.50;32.42
19005;BME280;9635;52.078;8.648;2023-06-24T13:43:17;101092.59;;;29.72;33.28
19005;BME280;9635;52.078;8.648;2023-06-24T13:48:20;101096.03;;;30.52;32.30
19005;BME280;9635;52.078;8.648;2023-06-24T13:53:23;101083.59;;;32.11;31.48
19005;BME280;9635;52.078;8.648;2023-06-24T13:58:27;101078.75;;;31.89;31.32
19005;BME280;9635;52.078;8.648;2023-06-24T14:03:30;101084.25;;;30.91;32.14
19005;BME280;9635;52.078;8.648;2023-06-24T14:08:34;101085.09;;;30.92;32.83
19005;BME280;9635;52.078;8.648;2023-06-24T14:13:39;101073.91;;;32.64;31.08
19005;BME280;9635;52.078;8.648;2023-06-24T14:18:43;101061.50;;;34.09;29.66
19005;BME280;9635;52.078;8.648;2023-06-24T14:23:46;101070.13;;;30.93;32.17
19005;BME280;9635;52.078;8.648;2023-06-24T14:28:50;101052.38;;;32.37;31.45
19005;BME280;9635;52.078;8.648;2023-06-24T14:33:53;101051.25;;;33.60;30.35
19005;BME280;9635;52.078;8.648;2023-06-24T14:38:56;101051.78;;;32.18;31.21
19005;BME280;9635;52.078;8.648;2023-06-24T14:44:00;101053.88;;;31.37;32.16
19005;BME280;9635;52.078;8.648;2023-06-24T14:49:03;101061.41;;;29.65;34.76
19005;BME280;9635;52.078;8.648;2023-06-24T14:54:07;101047.25;;;29.55;35.56
19005;BME280;9635;52.078;8.648;2023-06-24T14:59:11;101045.56;;;30.73;33.40
19005;BME280;9635;52.078;8.648;2023-06-24T15:04:14;101037.19;;;32.11;32.41
19005;BME280;9635;52.078;8.648;2023-06-24T15:09:17;101028.84;;;32.62;32.65
19005;BME280;9635;52.078;8.648;2023-06-24T15:14:21;101028.13;;;33.10;30.70
19005;BME280;9635;52.078;8.648;2023-06-24T15:19:24;101026.34;;;34.08;30.87
19005;BME280;9635;52.078;8.648;2023-06-24T15:24:27;101024.28;;;33.93;30.85
19005;BME280;9635;52.078;8.648;2023-06-24T15:29:31;101032.03;;;33.37;32.68
19005;BME280;9635;52.078;8.648;2023-06-24T15:34:36;101016.53;;;34.00;31.31
19005;BME280;9635;52.078;8.648;2023-06-24T15:39:38;101016.47;;;32.70;32.14
19005;BME280;9635;52.078;8.648;2023-06-24T15:44:43;101013.75;;;33.46;32.68
19005;BME280;9635;52.078;8.648;2023-06-24T15:49:46;101003.25;;;32.43;31.55
19005;BME280;9635;52.078;8.648;2023-06-24T15:54:49;100999.97;;;32.46;31.49
19005;BME280;9635;52.078;8.648;2023-06-24T15:59:53;100998.66;;;32.71;31.47
19005;BME280;9635;52.078;8.648;2023-06-24T16:04:56;100998.75;;;32.76;32.57
19005;BME280;9635;52.078;8.648;2023-06-24T16:09:59;101002.84;;;31.38;34.42
19005;BME280;9635;52.078;8.648;2023-06-24T16:15:05;101003.41;;;30.47;35.30
19005;BME280;9635;52.078;8.648;2023-06-24T16:20:09;100997.13;;;30.40;35.05
19005;BME280;9635;52.078;8.648;2023-06-24T16:25:15;100997.75;;;30.31;36.16
19005;BME280;9635;52.078;8.648;2023-06-24T16:30:20;100987.88;;;29.69;36.74
19005;BME280;9635;52.078;8.648;2023-06-24T16:35:23;100988.28;;;30.55;35.55
19005;BME280;9635;52.078;8.648;2023-06-24T16:40:26;100977.22;;;33.37;33.76
19005;BME280;9635;52.078;8.648;2023-06-24T16:45:35;100976.59;;;38.23;26.00
19005;BME280;9635;52.078;8.648;2023-06-24T16:50:38;100968.44;;;39.17;26.38
19005;BME280;9635;52.078;8.648;2023-06-24T16:55:41;100960.44;;;40.69;24.76
19005;BME280;9635;52.078;8.648;2023-06-24T17:00:45;100970.44;;;40.01;25.70
19005;BME280;9635;52.078;8.648;2023-06-24T17:05:48;100958.56;;;40.79;24.82
19005;BME280;9635;52.078;8.648;2023-06-24T17:10:51;100961.81;;;40.11;24.73
19005;BME280;9635;52.078;8.648;2023-06-24T17:15:55;100967.06;;;39.34;25.15
19005;BME280;9635;52.078;8.648;2023-06-24T17:20:58;100957.34;;;40.57;24.30
19005;BME280;9635;52.078;8.648;2023-06-24T17:26:01;100945.06;;;40.89;24.46
19005;BME280;9635;52.078;8.648;2023-06-24T17:31:05;100947.25;;;41.06;23.95
19005;BME280;9635;52.078;8.648;2023-06-24T17:36:08;100954.88;;;40.37;25.34
19005;BME280;9635;52.078;8.648;2023-06-24T17:41:11;100952.88;;;39.25;26.07
19005;BME280;9635;52.078;8.648;2023-06-24T17:46:16;100960.47;;;38.33;27.15
19005;BME280;9635;52.078;8.648;2023-06-24T17:51:18;100954.22;;;36.24;29.29
19005;BME280;9635;52.078;8.648;2023-06-24T17:56:21;100959.50;;;33.21;32.48
19005;BME280;9635;52.078;8.648;2023-06-24T18:01:28;100965.94;;;31.54;34.94
19005;BME280;9635;52.078;8.648;2023-06-24T18:06:31;100957.59;;;30.45;37.09
19005;BME280;9635;52.078;8.648;2023-06-24T18:11:34;100956.50;;;29.45;38.45
19005;BME280;9635;52.078;8.648;2023-06-24T18:16:41;100959.16;;;28.73;40.02
19005;BME280;9635;52.078;8.648;2023-06-24T18:21:49;100954.38;;;28.25;40.01
19005;BME280;9635;52.078;8.648;2023-06-24T18:26:53;100947.22;;;27.92;41.37
19005;BME280;9635;52.078;8.648;2023-06-24T18:31:57;100953.50;;;27.74;41.86
19005;BME280;9635;52.078;8.648;2023-06-24T18:37:00;100941.81;;;27.54;41.93
19005;BME280;9635;52.078;8.648;2023-06-24T18:42:04;100943.63;;;27.28;42.91
19005;BME280;9635;52.078;8.648;2023-06-24T18:47:08;100930.16;;;27.07;43.42
19005;BME280;9635;52.078;8.648;2023-06-24T18:52:11;100934.06;;;26.92;45.31
19005;BME280;9635;52.078;8.648;2023-06-24T18:57:14;100933.31;;;26.65;45.92
19005;BME280;9635;52.078;8.648;2023-06-24T19:02:18;100930.22;;;26.42;45.87
19005;BME280;9635;52.078;8.648;2023-06-24T19:07:21;100935.13;;;26.26;46.26
19005;BME280;9635;52.078;8.648;2023-06-24T19:12:25;100935.13;;;26.06;45.72
19005;BME280;9635;52.078;8.648;2023-06-24T19:17:29;100924.75;;;25.89;46.13
19005;BME280;9635;52.078;8.648;2023-06-24T19:22:32;100926.88;;;25.80;46.27
19005;BME280;9635;52.078;8.648;2023-06-24T19:27:36;100930.28;;;25.69;46.78
19005;BME280;9635;52.078;8.648;2023-06-24T19:32:40;100933.00;;;25.55;47.01
19005;BME280;9635;52.078;8.648;2023-06-24T19:37:45;100928.34;;;25.43;47.57
19005;BME280;9635;52.078;8.648;2023-06-24T19:42:48;100920.91;;;25.30;48.01
19005;BME280;9635;52.078;8.648;2023-06-24T19:47:53;100926.16;;;25.11;48.59
19005;BME280;9635;52.078;8.648;2023-06-24T19:52:55;100934.59;;;25.03;48.67
19005;BME280;9635;52.078;8.648;2023-06-24T19:57:58;100931.50;;;24.85;48.99
19005;BME280;9635;52.078;8.648;2023-06-24T20:03:04;100932.34;;;24.72;49.43
19005;BME280;9635;52.078;8.648;2023-06-24T20:08:07;100935.91;;;24.72;49.02
19005;BME280;9635;52.078;8.648;2023-06-24T20:13:10;100933.78;;;24.68;49.86
19005;BME280;9635;52.078;8.648;2023-06-24T20:18:14;100933.50;;;24.49;50.36
19005;BME280;9635;52.078;8.648;2023-06-24T20:23:19;100939.84;;;24.22;50.75
19005;BME280;9635;52.078;8.648;2023-06-24T20:28:22;100931.13;;;24.12;51.42
19005;BME280;9635;52.078;8.648;2023-06-24T20:33:26;100936.16;;;24.08;51.68
19005;BME280;9635;52.078;8.648;2023-06-24T20:38:29;100929.47;;;24.17;51.72
19005;BME280;9635;52.078;8.648;2023-06-24T20:43:32;100929.81;;;24.07;51.79
19005;BME280;9635;52.078;8.648;2023-06-24T20:48:36;100920.44;;;23.95;52.10
19005;BME280;9635;52.078;8.648;2023-06-24T20:53:39;100925.25;;;23.86;52.24
19005;BME280;9635;52.078;8.648;2023-06-24T20:58:42;100926.22;;;23.79;53.30
19005;BME280;9635;52.078;8.648;2023-06-24T21:03:47;100924.59;;;23.63;53.50
19005;BME280;9635;52.078;8.648;2023-06-24T21:08:49;100930.78;;;23.50;53.56
19005;BME280;9635;52.078;8.648;2023-06-24T21:13:52;100931.16;;;23.26;53.81
19005;BME280;9635;52.078;8.648;2023-06-24T21:18:57;100931.13;;;23.04;54.49
19005;BME280;9635;52.078;8.648;2023-06-24T21:24:00;100921.31;;;22.95;55.07
19005;BME280;9635;52.078;8.648;2023-06-24T21:29:04;100916.34;;;22.98;54.90
19005;BME280;9635;52.078;8.648;2023-06-24T21:34:08;100918.19;;;22.98;55.57
19005;BME280;9635;52.078;8.648;2023-06-24T21:39:11;100915.56;;;22.90;55.38
19005;BME280;9635;52.078;8.648;2023-06-24T21:44:14;100927.50;;;22.82;55.99
19005;BME280;9635;52.078;8.648;2023-06-24T21:49:18;100929.03;;;22.70;56.32
19005;BME280;9635;52.078;8.648;2023-06-24T21:54:21;100926.81;;;22.44;57.05
19005;BME280;9635;52.078;8.648;2023-06-24T21:59:24;100927.72;;;22.51;56.84
19005;BME280;9635;52.078;8.648;2023-06-24T22:04:30;100919.97;;;22.40;57.44
19005;BME280;9635;52.078;8.648;2023-06-24T22:09:33;100925.25;;;22.41;57.78
19005;BME280;9635;52.078;8.648;2023-06-24T22:14:36;100920.25;;;22.30;57.63
19005;BME280;9635;52.078;8.648;2023-06-24T22:19:40;100917.50;;;22.15;57.83
19005;BME280;9635;52.078;8.648;2023-06-24T22:24:43;100906.47;;;22.08;58.25
19005;BME280;9635;52.078;8.648;2023-06-24T22:29:47;100914.78;;;22.15;58.56
19005;BME280;9635;52.078;8.648;2023-06-24T22:34:51;100921.66;;;22.11;58.37
19005;BME280;9635;52.078;8.648;2023-06-24T22:39:54;100918.50;;;21.84;59.09
19005;BME280;9635;52.078;8.648;2023-06-24T22:44:57;100917.25;;;21.72;59.41
19005;BME280;9635;52.078;8.648;2023-06-24T22:50:02;100910.72;;;21.73;59.40
19005;BME280;9635;52.078;8.648;2023-06-24T22:55:05;100912.41;;;21.74;59.37
19005;BME280;9635;52.078;8.648;2023-06-24T23:00:09;100913.84;;;21.70;59.45
19005;BME280;9635;52.078;8.648;2023-06-24T23:05:15;100917.31;;;21.64;59.43
19005;BME280;9635;52.078;8.648;2023-06-24T23:10:19;100915.97;;;21.60;59.76
19005;BME280;9635;52.078;8.648;2023-06-24T23:15:22;100908.69;;;21.52;60.40
19005;BME280;9635;52.078;8.648;2023-06-24T23:20:27;100906.84;;;21.44;60.10
19005;BME280;9635;52.078;8.648;2023-06-24T23:25:30;100909.19;;;21.33;60.63
19005;BME280;9635;52.078;8.648;2023-06-24T23:30:34;100911.53;;;21.36;61.29
19005;BME280;9635;52.078;8.648;2023-06-24T23:35:39;100916.44;;;21.26;61.05
19005;BME280;9635;52.078;8.648;2023-06-24T23:40:42;100898.94;;;21.12;61.76
19005;BME280;9635;52.078;8.648;2023-06-24T23:45:48;100903.53;;;21.03;62.09
19005;BME280;9635;52.078;8.648;2023-06-24T23:50:53;100892.50;;;20.96;62.33
19005;BME280;9635;52.078;8.648;2023-06-24T23:55:55;100896.97;;;20.89;62.06
